Time;durP1;ratioP1;P1;durP2;ratioP2;P2;SDS_P1;SDS_P2;PMS_P1;PMS_P2;Temp;Humidity;BMP_temperature;BMP_pressure;BME280_temperature;BME280_humidity;BME280_pressure;Samples;Min_cycle;Max_cycle;Signal;HPM_P1;HPM_P2
2023/06/02 00:02:16;;;;;;;9.38;3.67;;;12.40;99.90;;;;;;4995927;28;20510;-72
2023/06/02 00:04:44;;;;;;;9.13;2.22;;;12.40;99.90;;;;;;4995915;28;20050;-73
2023/06/02 00:07:11;;;;;;;12.65;1.98;;;12.40;99.90;;;;;;4992969;28;20045;-72
2023/06/02 00:09:38;;;;;;;8.23;1.80;;;12.40;99.90;;;;;;5006508;28;20468;-72
2023/06/02 00:12:05;;;;;;;17.35;1.52;;;12.30;99.90;;;;;;4993661;28;20030;-72
2023/06/02 00:14:32;;;;;;;13.40;2.53;;;12.30;99.90;;;;;;4990801;28;20438;-72
2023/06/02 00:17:00;;;;;;;9.68;2.03;;;12.30;99.90;;;;;;4994136;28;20061;-72
2023/06/02 00:19:30;;;;;;;8.52;2.20;;;12.30;99.90;;;;;;4995595;28;20081;-72
2023/06/02 00:22:02;;;;;;;7.18;1.90;;;12.20;99.90;;;;;;4994601;28;20117;-72
2023/06/02 00:24:28;;;;;;;11.27;2.13;;;12.20;99.90;;;;;;4994313;28;20027;-72
2023/06/02 00:26:54;;;;;;;12.98;1.85;;;12.10;99.90;;;;;;4991482;28;20109;-72
2023/06/02 00:29:19;;;;;;;7.90;2.67;;;12.10;99.90;;;;;;4993791;28;20101;-72
2023/06/02 00:31:45;;;;;;;6.20;1.40;;;12.00;99.90;;;;;;4995406;28;20040;-73
2023/06/02 00:34:11;;;;;;;6.78;1.73;;;12.00;99.90;;;;;;4993443;28;20518;-73
2023/06/02 00:36:37;;;;;;;8.40;2.50;;;12.00;99.90;;;;;;4995411;28;20030;-73
2023/06/02 00:39:03;;;;;;;7.65;2.03;;;12.00;99.90;;;;;;4994430;28;20065;-72
2023/06/02 00:41:29;;;;;;;9.20;2.10;;;12.10;99.90;;;;;;4995015;28;20046;-72
2023/06/02 00:43:56;;;;;;;5.77;1.13;;;12.10;99.90;;;;;;4994234;28;20031;-72
2023/06/02 00:46:22;;;;;;;5.40;1.48;;;12.10;99.90;;;;;;4993905;28;20030;-73
2023/06/02 00:48:49;;;;;;;8.20;1.90;;;12.10;99.90;;;;;;4994410;28;20391;-73
2023/06/02 00:51:16;;;;;;;6.90;1.80;;;12.10;99.90;;;;;;4997430;28;20041;-71
2023/06/02 00:53:43;;;;;;;12.65;2.70;;;12.10;99.90;;;;;;4994465;28;20053;-72
2023/06/02 00:56:13;;;;;;;11.70;1.48;;;12.10;99.90;;;;;;4994319;28;20038;-72
2023/06/02 00:58:41;;;;;;;7.55;1.70;;;12.10;99.90;;;;;;4994546;28;20483;-71
2023/06/02 01:01:12;;;;;;;7.82;1.58;;;12.10;99.90;;;;;;4994816;28;20066;-71
2023/06/02 01:03:45;;;;;;;15.27;2.03;;;12.10;99.90;;;;;;4993730;28;20026;-71
2023/06/02 01:06:12;;;;;;;13.85;2.17;;;12.10;99.90;;;;;;4994514;28;20028;-73
2023/06/02 01:08:39;;;;;;;5.17;1.67;;;12.10;99.90;;;;;;4994099;28;20040;-72
2023/06/02 01:11:07;;;;;;;11.68;1.63;;;12.10;99.90;;;;;;4994654;28;20316;-72
2023/06/02 01:13:34;;;;;;;9.60;1.65;;;12.10;99.90;;;;;;4993801;28;20027;-72
2023/06/02 01:15:59;;;;;;;3.80;1.75;;;12.10;99.90;;;;;;4994532;28;20048;-71
2023/06/02 01:18:29;;;;;;;14.50;1.85;;;12.10;99.90;;;;;;4993010;28;20101;-71
2023/06/02 01:20:58;;;;;;;4.68;1.35;;;12.10;99.90;;;;;;4994302;28;20053;-72
2023/06/02 01:23:32;;;;;;;4.28;1.80;;;12.20;99.90;;;;;;4993739;28;20023;-72
2023/06/02 01:25:58;;;;;;;8.90;1.75;;;12.20;99.90;;;;;;4994350;28;20061;-72
2023/06/02 01:28:25;;;;;;;9.05;2.50;;;12.10;99.90;;;;;;4993525;28;20117;-72
2023/06/02 01:30:57;;;;;;;7.43;1.35;;;12.10;99.90;;;;;;4985638;28;20479;-72
2023/06/02 01:33:34;;;;;;;11.50;1.85;;;12.10;99.90;;;;;;4991742;28;20506;-72
2023/06/02 01:36:00;;;;;;;4.33;1.70;;;12.00;99.90;;;;;;4994241;28;20037;-72
2023/06/02 01:38:29;;;;;;;6.88;1.92;;;12.00;99.90;;;;;;4993300;28;20491;-71
2023/06/02 01:40:59;;;;;;;6.75;1.63;;;12.00;99.90;;;;;;4993841;28;20403;-71
2023/06/02 01:43:27;;;;;;;7.28;1.70;;;12.00;99.90;;;;;;4993194;28;20038;-72
2023/06/02 01:45:54;;;;;;;9.40;1.88;;;12.00;99.90;;;;;;4994112;28;20022;-73
2023/06/02 01:48:21;;;;;;;10.63;1.85;;;12.00;99.90;;;;;;4993012;28;20062;-73
2023/06/02 01:50:46;;;;;;;5.57;1.67;;;12.10;99.90;;;;;;4992729;28;20045;-72
2023/06/02 01:53:12;;;;;;;5.53;1.40;;;12.00;99.90;;;;;;4994007;28;20038;-73
2023/06/02 01:55:39;;;;;;;3.92;1.45;;;11.90;99.90;;;;;;4993887;28;20497;-73
2023/06/02 01:58:04;;;;;;;3.58;1.20;;;11.90;99.90;;;;;;4993283;28;20023;-72
2023/06/02 02:00:31;;;;;;;6.00;2.13;;;11.90;99.90;;;;;;4993789;28;20030;-71
2023/06/02 02:02:57;;;;;;;6.10;1.88;;;11.80;99.90;;;;;;4993009;28;20395;-71
2023/06/02 02:05:23;;;;;;;8.90;1.75;;;11.80;99.90;;;;;;4991344;28;20031;-72
2023/06/02 02:07:50;;;;;;;6.95;1.58;;;11.70;99.90;;;;;;4981991;28;20027;-72
2023/06/02 02:10:17;;;;;;;6.40;1.17;;;11.70;99.90;;;;;;4992879;28;20033;-71
2023/06/02 02:12:42;;;;;;;6.88;1.27;;;11.80;99.90;;;;;;4993129;28;20117;-73
2023/06/02 02:15:09;;;;;;;3.40;1.25;;;11.80;99.90;;;;;;4993717;28;20026;-72
2023/06/02 02:17:36;;;;;;;5.05;1.15;;;11.80;99.90;;;;;;4992750;28;20019;-73
2023/06/02 02:20:05;;;;;;;6.40;1.30;;;11.80;99.90;;;;;;4993627;28;20026;-72
2023/06/02 02:22:32;;;;;;;5.20;1.38;;;11.70;99.90;;;;;;4992679;28;20044;-73
2023/06/02 02:24:58;;;;;;;3.90;1.20;;;11.70;99.90;;;;;;4993579;28;20124;-72
2023/06/02 02:27:24;;;;;;;4.47;1.30;;;11.70;99.90;;;;;;4992562;28;20041;-72
2023/06/02 02:29:50;;;;;;;4.82;1.85;;;11.70;99.90;;;;;;4992459;28;20027;-72
2023/06/02 02:32:16;;;;;;;7.95;1.95;;;11.70;99.90;;;;;;4993440;28;20559;-71
2023/06/02 02:34:45;;;;;;;3.03;0.80;;;11.70;99.90;;;;;;4992039;28;20123;-72
2023/06/02 02:37:12;;;;;;;5.75;1.20;;;11.80;99.90;;;;;;4992757;28;20023;-72
2023/06/02 02:39:38;;;;;;;8.25;1.30;;;11.80;99.90;;;;;;4992278;28;20092;-71
2023/06/02 02:42:04;;;;;;;10.10;1.45;;;11.80;99.90;;;;;;4992074;28;20030;-71
2023/06/02 02:44:30;;;;;;;6.68;1.65;;;11.80;99.90;;;;;;4992380;28;20018;-71
2023/06/02 02:46:58;;;;;;;7.53;1.73;;;11.80;99.90;;;;;;4993301;28;20165;-71
2023/06/02 02:49:23;;;;;;;6.72;1.35;;;11.80;99.90;;;;;;4992422;28;20026;-71
2023/06/02 02:51:49;;;;;;;4.25;1.30;;;11.80;99.90;;;;;;4993201;28;20033;-72
2023/06/02 02:54:15;;;;;;;4.03;1.05;;;11.80;99.90;;;;;;4991944;28;20498;-71
2023/06/02 02:56:41;;;;;;;14.10;2.05;;;11.70;99.90;;;;;;4991986;28;20033;-72
2023/06/02 02:59:06;;;;;;;6.57;1.42;;;11.70;99.90;;;;;;5008284;28;20545;-72
2023/06/02 03:01:32;;;;;;;11.65;1.30;;;11.70;99.90;;;;;;4992190;28;20068;-72
2023/06/02 03:03:58;;;;;;;2.67;1.25;;;11.70;99.90;;;;;;4993184;28;20022;-72
2023/06/02 03:06:31;;;;;;;8.00;1.77;;;11.70;99.90;;;;;;4992252;28;20038;-72
2023/06/02 03:08:58;;;;;;;7.60;1.73;;;11.70;99.90;;;;;;4991252;28;20030;-71
2023/06/02 03:11:24;;;;;;;6.90;1.38;;;11.70;99.90;;;;;;4992926;28;20049;-71
2023/06/02 03:13:50;;;;;;;4.05;1.35;;;11.70;99.90;;;;;;4992834;28;20045;-72
2023/06/02 03:16:16;;;;;;;8.32;1.67;;;11.70;99.90;;;;;;4992186;28;20029;-72
2023/06/02 03:18:42;;;;;;;5.78;1.55;;;11.70;99.90;;;;;;4993430;28;20076;-71
2023/06/02 03:21:07;;;;;;;16.75;2.28;;;11.60;99.90;;;;;;4996660;28;20030;-72
2023/06/02 03:23:33;;;;;;;4.60;1.30;;;11.60;99.90;;;;;;4996623;28;20022;-72
2023/06/02 03:26:02;;;;;;;3.20;1.17;;;11.60;99.90;;;;;;4989339;28;20027;-71
2023/06/02 03:28:28;;;;;;;11.38;1.35;;;11.70;99.90;;;;;;4996475;28;20360;-72
2023/06/02 03:30:54;;;;;;;4.32;1.20;;;11.70;99.90;;;;;;4996531;28;20479;-72
2023/06/02 03:33:20;;;;;;;9.90;2.03;;;11.70;99.90;;;;;;4996751;28;20030;-72
2023/06/02 03:35:45;;;;;;;6.05;1.38;;;11.70;99.90;;;;;;4996372;28;20030;-72
2023/06/02 03:38:11;;;;;;;6.47;1.60;;;11.70;99.90;;;;;;4994912;28;20029;-71
2023/06/02 03:40:37;;;;;;;7.55;1.63;;;11.70;99.90;;;;;;5011018;28;20050;-72
2023/06/02 03:43:02;;;;;;;8.30;1.50;;;11.70;99.90;;;;;;4996319;28;20092;-72
2023/06/02 03:45:28;;;;;;;6.25;1.17;;;11.70;99.90;;;;;;4996332;28;20080;-71
2023/06/02 03:47:54;;;;;;;8.07;2.10;;;11.70;99.90;;;;;;4996263;28;20030;-72
2023/06/02 03:50:19;;;;;;;6.10;1.35;;;11.80;99.90;;;;;;4996107;28;20027;-72
2023/06/02 03:52:45;;;;;;;9.00;1.50;;;11.70;99.90;;;;;;4996084;28;20037;-71
2023/06/02 03:55:10;;;;;;;10.45;1.67;;;11.70;99.90;;;;;;4984301;28;20129;-70
2023/06/02 03:57:37;;;;;;;4.95;1.20;;;11.70;99.90;;;;;;4976484;28;20407;-70
2023/06/02 04:00:04;;;;;;;6.13;2.13;;;11.70;99.90;;;;;;4976541;28;20029;-70
2023/06/02 04:02:30;;;;;;;5.18;1.48;;;11.70;99.90;;;;;;4976537;28;20054;-71
2023/06/02 04:04:55;;;;;;;18.05;1.77;;;11.70;99.90;;;;;;4976424;28;20054;-71
2023/06/02 04:07:21;;;;;;;15.02;2.17;;;11.80;99.90;;;;;;4976381;28;20081;-72
2023/06/02 04:09:47;;;;;;;7.40;1.60;;;11.80;99.90;;;;;;4989916;28;20121;-71
2023/06/02 04:12:12;;;;;;;10.93;1.33;;;11.80;99.90;;;;;;4998937;28;20399;-72
2023/06/02 04:14:38;;;;;;;8.73;1.75;;;11.80;99.90;;;;;;4976211;28;20034;-71
2023/06/02 04:17:05;;;;;;;7.65;1.35;;;11.70;99.90;;;;;;4976594;28;20029;-72
2023/06/02 04:19:31;;;;;;;8.18;1.40;;;11.70;99.90;;;;;;4976222;28;20019;-71
2023/06/02 04:21:56;;;;;;;11.48;1.52;;;11.80;99.90;;;;;;4976037;28;20034;-71
2023/06/02 04:24:22;;;;;;;10.30;1.67;;;11.80;99.90;;;;;;4976071;28;20051;-71
2023/06/02 04:26:47;;;;;;;5.18;1.58;;;11.80;99.90;;;;;;4979166;28;20502;-72
2023/06/02 04:29:13;;;;;;;8.95;1.90;;;11.80;99.90;;;;;;4994439;28;20027;-71
2023/06/02 04:31:42;;;;;;;9.27;1.45;;;11.80;99.90;;;;;;4992868;28;20034;-73
2023/06/02 04:34:09;;;;;;;7.15;1.70;;;11.90;99.90;;;;;;4993166;28;20038;-72
2023/06/02 04:36:36;;;;;;;8.68;1.73;;;11.90;99.90;;;;;;4993104;28;20070;-71
2023/06/02 04:39:02;;;;;;;5.50;1.80;;;11.80;99.90;;;;;;4993270;28;20034;-72
2023/06/02 04:41:29;;;;;;;8.63;1.50;;;11.80;99.90;;;;;;4992745;28;20104;-72
2023/06/02 04:43:56;;;;;;;6.18;1.67;;;11.90;99.90;;;;;;4993088;28;20065;-71
2023/06/02 04:46:24;;;;;;;9.32;2.13;;;11.80;99.90;;;;;;4980075;28;20110;-72
2023/06/02 04:48:49;;;;;;;7.10;1.52;;;11.90;99.90;;;;;;4973567;28;20031;-72
2023/06/02 04:51:15;;;;;;;8.88;1.65;;;11.90;99.90;;;;;;4973710;28;20089;-72
2023/06/02 04:53:40;;;;;;;11.18;1.08;;;11.80;99.90;;;;;;4973505;28;20082;-72
2023/06/02 04:56:06;;;;;;;6.25;1.50;;;11.90;99.90;;;;;;4973511;28;20492;-72
2023/06/02 04:58:32;;;;;;;6.72;2.35;;;11.90;99.90;;;;;;4973271;28;20054;-73
2023/06/02 05:00:58;;;;;;;7.70;2.17;;;11.90;99.90;;;;;;4979070;28;20133;-72
2023/06/02 05:03:24;;;;;;;12.88;1.73;;;11.90;99.90;;;;;;4992693;28;20023;-70
2023/06/02 05:05:50;;;;;;;8.23;1.55;;;11.90;99.90;;;;;;4984080;28;20077;-75
2023/06/02 05:08:16;;;;;;;3.10;1.40;;;11.90;99.90;;;;;;4993978;28;20117;-73
2023/06/02 05:10:42;;;;;;;10.25;1.73;;;11.90;99.90;;;;;;4995018;28;20026;-71
2023/06/02 05:13:07;;;;;;;7.43;1.20;;;12.00;99.90;;;;;;4992168;28;20034;-72
2023/06/02 05:15:33;;;;;;;12.98;1.58;;;12.00;99.90;;;;;;4992965;28;20380;-72
2023/06/02 05:17:59;;;;;;;6.20;1.60;;;12.00;99.90;;;;;;4992611;28;20487;-71
2023/06/02 05:20:24;;;;;;;5.80;1.52;;;12.10;99.90;;;;;;4993183;28;20022;-72
2023/06/02 05:22:50;;;;;;;8.77;1.52;;;12.10;99.90;;;;;;4993034;28;20057;-72
2023/06/02 05:25:15;;;;;;;8.02;1.90;;;12.00;99.90;;;;;;4993001;28;20069;-72
2023/06/02 05:27:41;;;;;;;6.30;2.17;;;12.00;99.90;;;;;;4996471;28;20022;-72
2023/06/02 05:30:07;;;;;;;7.35;1.40;;;12.00;99.90;;;;;;4994535;28;20442;-72
2023/06/02 05:32:33;;;;;;;10.07;2.00;;;12.00;99.90;;;;;;4994436;28;20035;-71
2023/06/02 05:34:59;;;;;;;7.85;1.73;;;12.10;99.90;;;;;;4994503;28;20446;-71
2023/06/02 05:37:25;;;;;;;7.82;1.48;;;12.10;99.90;;;;;;4993795;28;20096;-72
2023/06/02 05:39:52;;;;;;;3.38;1.60;;;12.10;99.90;;;;;;4994172;28;20030;-72
2023/06/02 05:42:20;;;;;;;10.95;1.55;;;12.10;99.90;;;;;;4994231;28;20483;-72
2023/06/02 05:44:45;;;;;;;12.30;1.50;;;12.20;99.90;;;;;;4994248;28;20031;-71
2023/06/02 05:47:11;;;;;;;12.95;2.08;;;12.20;99.90;;;;;;5008912;28;20089;-72
2023/06/02 05:49:36;;;;;;;11.57;1.55;;;12.20;99.90;;;;;;4994158;28;20037;-72
2023/06/02 05:52:02;;;;;;;5.53;1.45;;;12.20;99.90;;;;;;4993965;28;20026;-69
2023/06/02 05:54:28;;;;;;;9.90;1.58;;;12.20;99.90;;;;;;4993154;28;20386;-71
2023/06/02 05:56:54;;;;;;;4.97;1.33;;;12.20;99.90;;;;;;4993797;28;20026;-71
2023/06/02 05:59:20;;;;;;;6.85;1.70;;;12.30;99.90;;;;;;4993836;28;20109;-70
2023/06/02 06:01:45;;;;;;;8.35;1.27;;;12.30;99.90;;;;;;4992386;28;20117;-71
2023/06/02 06:04:11;;;;;;;9.32;1.42;;;12.40;99.90;;;;;;4993773;28;20062;-70
2023/06/02 06:06:37;;;;;;;7.50;1.65;;;12.40;99.90;;;;;;4993762;28;20458;-72
2023/06/02 06:09:05;;;;;;;7.75;1.27;;;12.30;99.90;;;;;;4994001;28;20390;-73
2023/06/02 06:11:31;;;;;;;4.55;1.35;;;12.40;99.90;;;;;;4992963;28;20061;-72
2023/06/02 06:14:00;;;;;;;8.45;1.63;;;12.40;99.90;;;;;;4993561;28;20034;-71
2023/06/02 06:16:27;;;;;;;10.15;1.52;;;12.50;99.90;;;;;;4993703;28;20085;-70
2023/06/02 06:18:53;;;;;;;5.47;1.33;;;12.50;99.90;;;;;;4993609;28;20118;-70
2023/06/02 06:21:19;;;;;;;5.93;1.73;;;12.50;99.90;;;;;;4993451;28;20113;-70
2023/06/02 06:23:44;;;;;;;10.13;1.10;;;12.50;99.90;;;;;;4993555;28;20034;-71
2023/06/02 06:26:10;;;;;;;6.32;1.35;;;12.50;99.90;;;;;;4993385;28;20030;-71
2023/06/02 06:28:36;;;;;;;5.05;1.88;;;12.50;99.90;;;;;;4978467;28;20385;-72
2023/06/02 06:31:02;;;;;;;5.57;1.20;;;12.50;99.90;;;;;;4974109;28;20031;-73
2023/06/02 06:33:29;;;;;;;6.35;1.85;;;12.50;99.90;;;;;;4974157;28;20062;-72
2023/06/02 06:35:54;;;;;;;10.57;1.70;;;12.50;99.90;;;;;;4974097;28;20023;-70
2023/06/02 06:38:20;;;;;;;6.75;1.35;;;12.50;99.90;;;;;;4976291;28;20035;-71
2023/06/02 06:40:46;;;;;;;9.73;2.35;;;12.50;99.90;;;;;;4975057;28;20561;-72
2023/06/02 06:43:15;;;;;;;10.00;1.20;;;12.50;99.90;;;;;;4993180;28;20372;-71
2023/06/02 06:45:40;;;;;;;10.40;1.27;;;12.50;99.90;;;;;;4992957;28;20030;-71
2023/06/02 06:48:06;;;;;;;9.50;1.40;;;12.40;99.90;;;;;;4993167;28;20395;-71
2023/06/02 06:50:32;;;;;;;3.78;1.50;;;12.40;99.90;;;;;;4993269;28;20026;-71
2023/06/02 06:52:58;;;;;;;2.45;1.05;;;12.40;99.90;;;;;;4993308;28;20036;-71
2023/06/02 06:55:23;;;;;;;9.35;1.30;;;12.40;99.90;;;;;;4996481;28;20065;-70
2023/06/02 06:57:49;;;;;;;5.60;2.05;;;12.50;99.90;;;;;;4997193;28;20023;-72
2023/06/02 07:00:16;;;;;;;9.05;2.25;;;12.50;99.90;;;;;;4997206;28;20023;-70
2023/06/02 07:02:43;;;;;;;4.35;1.33;;;12.60;99.90;;;;;;4996348;28;20410;-71
2023/06/02 07:05:09;;;;;;;11.45;2.15;;;12.60;99.90;;;;;;4996897;28;20105;-71
2023/06/02 07:07:34;;;;;;;5.65;1.42;;;12.70;99.90;;;;;;4996980;28;20054;-71
2023/06/02 07:10:01;;;;;;;3.97;1.48;;;12.70;99.90;;;;;;4997039;28;20026;-72
2023/06/02 07:12:26;;;;;;;6.28;1.20;;;12.80;99.90;;;;;;4996843;28;20038;-72
2023/06/02 07:14:52;;;;;;;12.55;1.25;;;12.90;99.90;;;;;;4996879;28;20097;-71
2023/06/02 07:17:18;;;;;;;7.00;2.03;;;13.00;99.90;;;;;;4996736;28;20023;-71
2023/06/02 07:19:44;;;;;;;10.55;2.33;;;13.00;99.90;;;;;;4996123;28;20496;-71
2023/06/02 07:22:10;;;;;;;9.60;1.75;;;13.00;99.90;;;;;;4977145;28;20034;-71
2023/06/02 07:24:36;;;;;;;4.50;1.60;;;13.00;99.90;;;;;;4977141;28;20033;-71
2023/06/02 07:27:03;;;;;;;8.05;1.80;;;12.90;99.90;;;;;;4977001;28;20027;-71
2023/06/02 07:29:29;;;;;;;15.25;2.40;;;13.00;99.90;;;;;;4977077;28;20029;-71
2023/06/02 07:31:54;;;;;;;7.30;1.60;;;13.00;99.90;;;;;;4977079;28;20106;-72
2023/06/02 07:34:20;;;;;;;9.77;1.30;;;12.90;99.90;;;;;;4975724;28;20026;-71
2023/06/02 07:36:47;;;;;;;5.18;1.50;;;13.00;99.90;;;;;;4991576;28;20724;-71
2023/06/02 07:39:14;;;;;;;3.78;1.17;;;13.10;99.90;;;;;;4995674;28;20022;-71
2023/06/02 07:41:40;;;;;;;10.25;1.85;;;13.10;99.90;;;;;;4995337;28;20050;-71
2023/06/02 07:44:06;;;;;;;9.18;1.52;;;13.10;99.90;;;;;;4996327;28;20421;-71
2023/06/02 07:46:32;;;;;;;5.22;1.50;;;13.10;99.90;;;;;;4996151;28;20026;-70
2023/06/02 07:48:58;;;;;;;16.13;1.98;;;13.10;99.90;;;;;;4996251;28;20026;-70
2023/06/02 07:51:24;;;;;;;6.75;1.40;;;13.00;99.90;;;;;;4996505;28;20026;-72
2023/06/02 07:53:50;;;;;;;4.90;1.45;;;13.10;99.90;;;;;;4995700;28;20046;-70
2023/06/02 07:56:16;;;;;;;12.25;1.30;;;13.10;99.90;;;;;;4996053;28;20033;-71
2023/06/02 07:58:41;;;;;;;6.25;1.27;;;13.20;99.90;;;;;;4995909;28;20029;-71
2023/06/02 08:01:07;;;;;;;9.25;2.20;;;13.10;99.90;;;;;;4995964;28;20084;-71
2023/06/02 08:03:32;;;;;;;8.38;1.70;;;13.20;99.90;;;;;;4996264;28;20101;-71
2023/06/02 08:05:58;;;;;;;9.77;1.92;;;13.10;99.90;;;;;;5009874;28;20541;-71
2023/06/02 08:08:24;;;;;;;12.90;1.55;;;13.00;99.90;;;;;;4995842;28;20399;-71
2023/06/02 08:10:49;;;;;;;6.78;1.25;;;13.10;99.90;;;;;;5010204;28;20025;-72
2023/06/02 08:13:15;;;;;;;8.10;1.42;;;13.20;99.90;;;;;;4995786;28;20438;-72
2023/06/02 08:15:41;;;;;;;6.32;2.42;;;13.30;99.90;;;;;;4991858;28;20058;-71
2023/06/02 08:18:14;;;;;;;9.68;1.45;;;13.40;99.90;;;;;;4995747;28;20475;-72
2023/06/02 08:20:41;;;;;;;15.45;2.13;;;13.40;99.90;;;;;;4987988;28;20027;-70
2023/06/02 08:23:08;;;;;;;11.27;1.63;;;13.50;99.90;;;;;;4990446;28;20158;-71
2023/06/02 08:25:37;;;;;;;6.00;1.65;;;13.40;99.90;;;;;;4995491;28;20010;-72
2023/06/02 08:28:06;;;;;;;5.20;1.60;;;13.40;99.90;;;;;;4994917;28;20022;-70
2023/06/02 08:30:36;;;;;;;9.68;1.40;;;13.40;99.90;;;;;;4997478;28;20478;-72
2023/06/02 08:33:05;;;;;;;6.65;1.33;;;13.50;99.90;;;;;;4995470;28;20101;-72
2023/06/02 08:35:32;;;;;;;14.45;1.73;;;13.50;99.90;;;;;;4995589;28;20483;-72
2023/06/02 08:38:03;;;;;;;24.73;2.75;;;13.40;99.90;;;;;;4995457;28;20022;-72
2023/06/02 08:40:38;;;;;;;8.18;1.70;;;13.50;99.90;;;;;;4994960;28;20495;-72
2023/06/02 08:43:06;;;;;;;6.93;1.85;;;13.50;99.90;;;;;;4995239;28;20029;-71
2023/06/02 08:45:32;;;;;;;8.63;1.80;;;13.50;99.90;;;;;;4993599;28;20026;-71
2023/06/02 08:47:58;;;;;;;8.13;1.55;;;13.50;99.90;;;;;;4993819;28;20073;-72
2023/06/02 08:50:30;;;;;;;5.45;1.38;;;13.50;99.90;;;;;;4994986;28;20019;-71
2023/06/02 08:53:01;;;;;;;12.60;2.65;;;13.60;99.90;;;;;;4994989;28;20530;-71
2023/06/02 08:55:27;;;;;;;14.63;1.95;;;13.70;99.90;;;;;;4994889;28;20028;-71
2023/06/02 08:57:54;;;;;;;21.38;3.47;;;13.70;99.90;;;;;;4994863;28;20018;-70
2023/06/02 09:00:20;;;;;;;12.97;1.73;;;13.70;99.90;;;;;;4994766;28;20129;-71
2023/06/02 09:02:49;;;;;;;10.65;3.00;;;13.80;99.90;;;;;;4987270;28;20050;-70
2023/06/02 09:05:16;;;;;;;11.60;1.48;;;13.90;99.90;;;;;;4975136;28;20361;-71
2023/06/02 09:07:45;;;;;;;4.28;1.50;;;13.90;99.90;;;;;;4975273;28;20120;-71
2023/06/02 09:10:31;;;;;;;17.42;2.33;;;13.80;99.90;;;;;;4975096;28;20038;-72
2023/06/02 09:12:56;;;;;;;11.40;1.65;;;13.70;99.90;;;;;;4975315;28;20042;-71
2023/06/02 09:15:24;;;;;;;7.72;1.95;;;13.70;99.90;;;;;;4975424;28;20019;-72
2023/06/02 09:17:51;;;;;;;;;;;13.80;99.90;;;;;;4975271;28;20019;-72
2023/06/02 09:20:17;;;;;;;17.30;4.03;;;13.80;99.90;;;;;;4987261;28;19921;-71
2023/06/02 09:22:57;;;;;;;10.88;2.03;;;13.80;99.90;;;;;;4994351;28;20750;-70
2023/06/02 09:25:25;;;;;;;9.77;1.83;;;13.90;99.90;;;;;;4994457;28;20034;-72
2023/06/02 09:27:53;;;;;;;9.35;1.48;;;14.00;99.90;;;;;;4994451;28;20097;-72
2023/06/02 09:30:19;;;;;;;10.82;1.98;;;14.10;99.90;;;;;;4994405;28;20142;-72
2023/06/02 09:32:53;;;;;;;9.23;2.47;;;14.20;99.90;;;;;;4994225;28;20060;-72
2023/06/02 09:35:40;;;;;;;7.75;2.28;;;14.10;99.90;;;;;;4995459;28;20054;-71
2023/06/02 09:38:10;;;;;;;9.55;1.90;;;14.20;99.90;;;;;;5009264;28;20080;-72
2023/06/02 09:40:36;;;;;;;11.43;1.90;;;14.10;99.90;;;;;;5007664;28;20046;-71
2023/06/02 09:43:05;;;;;;;7.07;2.55;;;14.20;99.90;;;;;;4994034;28;20030;-71
2023/06/02 09:46:00;;;;;;;12.15;2.30;;;14.30;99.90;;;;;;4993203;28;20038;-71
2023/06/02 09:48:29;;;;;;;6.43;2.10;;;14.40;99.90;;;;;;4993839;28;20026;-71
2023/06/02 09:50:55;;;;;;;11.88;2.33;;;14.40;99.90;;;;;;4993800;28;20034;-72
2023/06/02 09:53:22;;;;;;;7.95;2.40;;;14.60;99.90;;;;;;4993315;28;20069;-72
2023/06/02 09:55:50;;;;;;;10.68;2.13;;;14.80;99.90;;;;;;4993884;28;20031;-72
2023/06/02 09:58:16;;;;;;;10.20;2.63;;;14.90;99.90;;;;;;4993924;28;20209;-72
2023/06/02 10:00:42;;;;;;;8.48;2.17;;;14.90;99.90;;;;;;4993720;28;20084;-72
2023/06/02 10:03:07;;;;;;;9.65;1.67;;;14.90;99.90;;;;;;4993916;28;20475;-73
2023/06/02 10:05:35;;;;;;;12.68;2.45;;;15.00;99.90;;;;;;4992523;28;20110;-73
2023/06/02 10:08:19;;;;;;;13.25;1.67;;;15.20;99.90;;;;;;4992208;28;20065;-72
2023/06/02 10:11:03;;;;;;;9.73;2.20;;;15.10;99.90;;;;;;4986165;28;20035;-72
2023/06/02 10:14:11;;;;;;;5.45;2.25;;;15.00;99.90;;;;;;4974285;28;20031;-71
2023/06/02 10:17:26;;;;;;;6.70;1.63;;;14.90;99.90;;;;;;4966190;28;20046;-72
2023/06/02 10:20:13;;;;;;;7.10;1.80;;;14.90;99.90;;;;;;4949383;28;20452;-73
2023/06/02 10:22:56;;;;;;;18.10;1.93;;;15.00;99.90;;;;;;4974307;28;20023;-72
2023/06/02 10:25:33;;;;;;;9.55;1.83;;;15.10;99.90;;;;;;4974285;28;20018;-72
2023/06/02 10:28:02;;;;;;;6.22;2.00;;;15.20;99.90;;;;;;4982185;28;20097;-72
2023/06/02 10:30:27;;;;;;;8.02;1.85;;;15.40;99.90;;;;;;4991786;28;20387;-71
2023/06/02 10:32:55;;;;;;;13.13;1.67;;;15.40;99.90;;;;;;4993500;28;20027;-72
2023/06/02 10:35:21;;;;;;;10.05;2.08;;;15.40;99.90;;;;;;4993230;28;20019;-72
2023/06/02 10:38:07;;;;;;;9.38;2.60;;;15.30;99.90;;;;;;4993357;28;20027;-71
2023/06/02 10:40:48;;;;;;;9.90;1.90;;;15.40;99.90;;;;;;4988353;28;20053;-72
2023/06/02 10:43:14;;;;;;;9.18;1.95;;;15.60;99.90;;;;;;4974228;28;20417;-72
2023/06/02 10:45:42;;;;;;;5.90;2.05;;;15.60;99.90;;;;;;4988691;28;20019;-71
2023/06/02 10:48:26;;;;;;;;;;;15.60;99.90;;;;;;4993941;28;20096;-73
2023/06/02 10:50:55;;;;;;;11.27;2.35;;;15.50;99.90;;;;;;4993609;28;19906;-73
2023/06/02 10:53:21;;;;;;;8.13;2.38;;;15.50;99.90;;;;;;4992997;28;20021;-72
2023/06/02 10:55:46;;;;;;;8.93;2.08;;;15.50;99.90;;;;;;4993203;28;20027;-72
2023/06/02 10:58:12;;;;;;;2.83;1.65;;;15.50;99.90;;;;;;4993160;28;20081;-72
2023/06/02 11:00:44;;;;;;;9.93;2.10;;;15.60;99.90;;;;;;4993071;28;20033;-72
2023/06/02 11:03:15;;;;;;;10.20;1.90;;;15.60;99.90;;;;;;4992752;28;20022;-72
2023/06/02 11:05:42;;;;;;;5.88;2.13;;;15.50;99.90;;;;;;4993132;28;20030;-71
2023/06/02 11:08:18;;;;;;;7.30;2.38;;;15.50;99.90;;;;;;4992997;28;20030;-71
2023/06/02 11:10:49;;;;;;;15.05;2.78;;;15.30;99.90;;;;;;4993058;28;20177;-71
2023/06/02 11:13:16;;;;;;;11.32;2.28;;;15.30;99.90;;;;;;4993040;28;20033;-72
2023/06/02 11:15:54;;;;;;;12.43;2.33;;;15.30;99.90;;;;;;4993151;28;20391;-72
2023/06/02 11:18:23;;;;;;;11.23;2.85;;;15.40;99.90;;;;;;4992319;28;20076;-71
2023/06/02 11:20:56;;;;;;;12.70;3.13;;;15.50;99.90;;;;;;4992875;28;20372;-71
2023/06/02 11:23:23;;;;;;;11.25;2.10;;;15.50;99.90;;;;;;4992883;28;20463;-72
2023/06/02 11:26:02;;;;;;;17.98;3.13;;;15.50;99.90;;;;;;4992940;28;20018;-72
2023/06/02 11:28:28;;;;;;;11.77;1.95;;;15.60;99.90;;;;;;4992971;28;20101;-72
2023/06/02 11:31:16;;;;;;;10.98;2.53;;;15.90;99.90;;;;;;4992939;28;20034;-72
2023/06/02 11:33:48;;;;;;;17.20;2.92;;;16.10;99.90;;;;;;4993002;28;20097;-72
2023/06/02 11:36:14;;;;;;;7.45;2.50;;;16.20;99.90;;;;;;4992425;28;20491;-72
2023/06/02 11:38:41;;;;;;;10.57;2.90;;;16.10;99.90;;;;;;4992035;28;20038;-73
2023/06/02 11:41:14;;;;;;;9.00;2.65;;;15.90;99.90;;;;;;4997861;28;20056;-72
2023/06/02 11:43:50;;;;;;;8.30;3.20;;;15.90;99.90;;;;;;4994185;28;20356;-72
2023/06/02 11:46:18;;;;;;;9.27;2.53;;;15.60;99.90;;;;;;4994119;28;20451;-71
2023/06/02 11:48:45;;;;;;;8.88;2.03;;;15.50;99.90;;;;;;5001677;28;20383;-72
2023/06/02 11:51:15;;;;;;;14.65;2.78;;;15.60;99.90;;;;;;4999317;28;20089;-72
2023/06/02 11:53:45;;;;;;;14.38;3.10;;;15.70;99.90;;;;;;4994890;28;20030;-73
2023/06/02 11:56:15;;;;;;;8.68;2.58;;;15.80;99.90;;;;;;4995103;28;20529;-71
2023/06/02 11:58:42;;;;;;;18.65;3.55;;;15.90;99.90;;;;;;4998855;28;20545;-73
2023/06/02 12:01:15;;;;;;;13.93;2.28;;;16.20;99.90;;;;;;4996007;28;20029;-73
2023/06/02 12:04:04;;;;;;;7.90;2.50;;;16.30;99.90;;;;;;4995918;28;20027;-73
2023/06/02 12:06:46;;;;;;;13.18;2.17;;;16.40;99.90;;;;;;4994696;28;20332;-72
2023/06/02 12:09:14;;;;;;;8.30;2.97;;;16.40;99.90;;;;;;4994076;28;20035;-73
2023/06/02 12:11:40;;;;;;;7.57;2.78;;;16.20;99.90;;;;;;4994906;28;20479;-71
2023/06/02 12:14:07;;;;;;;12.10;2.92;;;16.20;99.90;;;;;;4994437;28;20049;-72
2023/06/02 12:16:34;;;;;;;8.00;2.78;;;16.20;99.90;;;;;;5009439;28;20030;-71
2023/06/02 12:19:22;;;;;;;9.45;2.65;;;16.30;99.90;;;;;;4995658;28;20030;-71
2023/06/02 12:21:51;;;;;;;8.25;2.45;;;16.60;99.90;;;;;;4995431;28;20027;-71
2023/06/02 12:24:31;;;;;;;10.68;3.47;;;16.80;99.90;;;;;;4995477;28;20014;-71
2023/06/02 12:26:57;;;;;;;10.30;2.60;;;16.80;99.90;;;;;;4995089;28;20479;-73
2023/06/02 12:29:23;;;;;;;6.07;2.28;;;16.80;99.90;;;;;;4995485;28;20033;-72
2023/06/02 12:32:00;;;;;;;6.25;2.13;;;16.90;99.90;;;;;;4995395;28;20041;-72
2023/06/02 12:34:26;;;;;;;12.10;3.53;;;17.10;99.90;;;;;;4995402;28;20094;-72
2023/06/02 12:36:52;;;;;;;7.30;2.67;;;17.20;99.90;;;;;;4995353;28;20372;-72
2023/06/02 12:39:18;;;;;;;14.75;2.88;;;17.30;99.90;;;;;;4995256;28;20033;-72
2023/06/02 12:41:44;;;;;;;8.18;1.92;;;17.10;99.90;;;;;;4994921;28;20054;-73
2023/06/02 12:44:09;;;;;;;9.48;2.10;;;17.30;99.90;;;;;;4984330;28;20487;-72
2023/06/02 12:46:35;;;;;;;6.45;2.05;;;17.50;99.90;;;;;;4990634;28;20069;-73
2023/06/02 12:49:03;;;;;;;12.30;3.38;;;17.60;99.90;;;;;;4975964;28;20026;-72